This is the latest recevied weather packets stored in our database for station/object IZ3ZOD-13. If no packets are shown the sender has not sent any weather packets the latest 10 day(s).
| Time | Temp. | Humidity | Pressure | Rain* | Wind** | Luminosity | Snow |
|---|---|---|---|---|---|---|---|
| 1777733043 | 24.44° C | 35% | 1021.9 hPa | 0 mm | - | - | - |
| 1777732323 | 25° C | 34% | 1021.9 hPa | 0 mm | - | - | - |
| 1777727283 | 24.44° C | 32% | 1023.2 hPa | 0 mm | - | - | - |
| 1777726084 | 24.44° C | 33% | 1023.4 hPa | 0 mm | - | - | - |
| 1777723923 | 23.89° C | 32% | 1023.6 hPa | 0 mm | - | - | - |
| 1777722483 | 23.89° C | 33% | 1023.9 hPa | 0 mm | - | - | - |
| 1777721763 | 23.89° C | 32% | 1024.1 hPa | 0 mm | - | - | - |
| 1777714803 | 22.78° C | 37% | 1025.4 hPa | 0 mm | - | - | - |
| 1777714083 | 22.22° C | 36% | 1025.5 hPa | 0 mm | - | - | - |
| 1777713736 | 22.22° C | 38% | 1025.7 hPa | 0 mm | - | - | - |
| 1777709043 | 20.56° C | 40% | 1026 hPa | 0 mm | - | - | - |
| 1777704484 | 16.11° C | 54% | 1026.3 hPa | 0 mm | - | - | - |
| 1777704003 | 16.11° C | 55% | 1026.4 hPa | 0 mm | - | - | - |
| 1777702564 | 15.56° C | 53% | 1026.3 hPa | 0 mm | - | - | - |
| 1777701254 | 15° C | 55% | 1026.3 hPa | 0 mm | - | - | - |
| 1777699443 | 12.78° C | 58% | 1026.2 hPa | 0 mm | - | - | - |
| 1777699093 | 12.78° C | 60% | 1026.2 hPa | 0 mm | - | - | - |
| 1777698244 | 11.67° C | 63% | 1026.2 hPa | 0 mm | - | - | - |
| 1777696803 | 10° C | 69% | 1025.8 hPa | 0 mm | - | - | - |
| 1777695363 | 8.33° C | 72% | 1026 hPa | 0 mm | - | - | - |
| 1777695123 | 8.33° C | 72% | 1026 hPa | 0 mm | - | - | - |
| 1777694643 | 8.33° C | 73% | 1026 hPa | 0 mm | - | - | - |
| 1777694403 | 8.33° C | 74% | 1026.1 hPa | 0 mm | - | - | - |
| 1777693684 | 7.78° C | 76% | 1025.8 hPa | 0 mm | - | - | - |
| 1777693204 | 7.78° C | 74% | 1026.1 hPa | 0 mm | - | - | - |
* Rain latest hour (hover to see other rain measurements)
** Current wind speed in m/s (hover to see current wind gust speed)